createdAt,value
2018-02-24T00:02:17.194Z,64.80
2018-02-24T00:04:44.948Z,65.36
2018-02-24T00:07:12.970Z,64.83
2018-02-24T00:09:41.162Z,65.07
2018-02-24T00:12:08.820Z,65.00
2018-02-24T00:14:36.375Z,65.03
2018-02-24T00:17:04.204Z,65.26
2018-02-24T00:19:32.508Z,65.37
2018-02-24T00:22:00.078Z,65.32
2018-02-24T00:24:27.858Z,65.24
2018-02-24T00:26:55.663Z,64.49
2018-02-24T00:29:23.283Z,64.98
2018-02-24T00:31:50.913Z,65.57
2018-02-24T00:34:18.494Z,65.37
2018-02-24T00:36:46.178Z,65.66
2018-02-24T00:39:14.590Z,64.96
2018-02-24T00:41:42.243Z,65.41
2018-02-24T00:44:10.082Z,65.56
2018-02-24T00:46:38.051Z,65.32
2018-02-24T00:49:05.614Z,65.66
2018-02-24T00:51:33.215Z,66.36
2018-02-24T00:54:01.501Z,65.78
2018-02-24T00:56:29.113Z,65.10
2018-02-24T00:58:56.802Z,65.40
2018-02-24T01:01:24.624Z,65.29
2018-02-24T01:03:52.470Z,65.73
2018-02-24T01:06:20.408Z,65.65
2018-02-24T01:08:47.955Z,65.88
2018-02-24T01:11:15.628Z,65.79
2018-02-24T01:13:43.204Z,65.87
2018-02-24T01:16:10.810Z,65.65
2018-02-24T01:18:38.643Z,65.72
2018-02-24T01:21:06.825Z,66.36
2018-02-24T01:23:34.402Z,66.58
2018-02-24T01:26:01.945Z,67.02
2018-02-24T01:28:29.688Z,67.08
2018-02-24T01:30:57.555Z,66.83
2018-02-24T01:33:25.921Z,66.62
2018-02-24T01:35:53.863Z,67.31
2018-02-24T01:38:22.547Z,66.92
2018-02-24T01:40:50.638Z,67.06
2018-02-24T01:43:18.856Z,66.82
2018-02-24T01:45:46.414Z,67.17
2018-02-24T01:48:13.955Z,67.51
2018-02-24T01:50:42.754Z,67.41
2018-02-24T01:53:10.614Z,67.52
2018-02-24T01:55:38.165Z,67.90
2018-02-24T01:58:05.744Z,67.60
2018-02-24T02:00:33.484Z,67.92
2018-02-24T02:03:01.207Z,67.77
2018-02-24T02:05:29.128Z,67.53
2018-02-24T02:07:56.943Z,67.52
2018-02-24T02:10:24.547Z,67.27
2018-02-24T02:12:52.457Z,67.26
2018-02-24T02:15:20.079Z,67.60
2018-02-24T02:17:47.695Z,67.32
2018-02-24T02:20:15.494Z,67.18
2018-02-24T02:22:43.345Z,67.45
2018-02-24T02:25:11.018Z,67.18
2018-02-24T02:27:38.638Z,67.64
2018-02-24T02:30:06.438Z,67.16
2018-02-24T02:32:34.101Z,67.11
2018-02-24T02:35:02.318Z,67.24
2018-02-24T02:37:30.553Z,66.98
2018-02-24T02:39:58.306Z,66.57
2018-02-24T02:42:26.125Z,66.79
2018-02-24T02:44:54.104Z,66.69
2018-02-24T02:47:22.200Z,67.06
2018-02-24T02:49:50.031Z,66.80
2018-02-24T02:52:17.761Z,66.81
2018-02-24T02:54:45.469Z,66.71
2018-02-24T02:57:13.305Z,66.31
2018-02-24T02:59:41.267Z,66.95
2018-02-24T03:02:09.432Z,66.45
2018-02-24T03:04:37.143Z,66.44
2018-02-24T03:07:04.955Z,66.16
2018-02-24T03:09:32.722Z,66.32
2018-02-24T03:12:00.468Z,66.88
2018-02-24T03:14:28.148Z,66.22
2018-02-24T03:16:55.953Z,66.85
2018-02-24T03:19:23.684Z,66.50
2018-02-24T03:21:51.428Z,66.55
2018-02-24T03:24:19.133Z,66.17
2018-02-24T03:26:47.030Z,67.43
2018-02-24T03:29:14.892Z,66.95
2018-02-24T03:31:42.486Z,66.54
2018-02-24T03:34:10.519Z,66.04
2018-02-24T03:36:38.288Z,66.08
2018-02-24T03:39:06.222Z,66.84
2018-02-24T03:41:33.757Z,67.11
2018-02-24T03:44:01.969Z,66.53
2018-02-24T03:46:29.740Z,67.13
2018-02-24T03:48:57.468Z,67.27
2018-02-24T03:51:25.045Z,67.13
2018-02-24T03:53:52.834Z,67.50
2018-02-24T03:56:20.450Z,67.64
2018-02-24T03:58:48.156Z,67.64
2018-02-24T04:01:15.814Z,67.67
2018-02-24T04:03:43.622Z,67.29
2018-02-24T04:06:11.519Z,67.44
2018-02-24T04:08:39.318Z,68.07
2018-02-24T04:11:07.029Z,67.32
2018-02-24T04:13:34.580Z,67.35
2018-02-24T04:16:02.192Z,67.22
2018-02-24T04:18:30.044Z,66.94
2018-02-24T04:20:58.030Z,67.57
2018-02-24T04:23:25.685Z,67.28
2018-02-24T04:25:53.526Z,67.39
2018-02-24T04:28:21.602Z,67.30
2018-02-24T04:30:49.608Z,67.96
2018-02-24T04:33:17.331Z,67.33
2018-02-24T04:35:44.979Z,68.05
2018-02-24T04:38:12.838Z,67.59
2018-02-24T04:40:40.684Z,67.97
2018-02-24T04:43:08.424Z,67.44
2018-02-24T04:45:36.090Z,68.18
2018-02-24T04:48:03.625Z,68.35
2018-02-24T04:50:31.459Z,67.87
2018-02-24T04:52:59.969Z,68.66
2018-02-24T04:55:27.600Z,68.65
2018-02-24T04:57:55.135Z,68.47
2018-02-24T05:00:22.746Z,68.31
2018-02-24T05:02:50.318Z,68.24
2018-02-24T05:05:18.019Z,68.48
2018-02-24T05:07:45.625Z,68.61
2018-02-24T05:10:13.205Z,68.36
2018-02-24T05:12:40.883Z,68.65
2018-02-24T05:15:08.690Z,68.97
2018-02-24T05:17:36.410Z,68.93
2018-02-24T05:20:04.670Z,68.38
2018-02-24T05:22:32.264Z,69.09
2018-02-24T05:25:00.333Z,68.76
2018-02-24T05:27:27.957Z,68.50
2018-02-24T05:29:55.744Z,68.24
2018-02-24T05:32:23.276Z,68.93
2018-02-24T05:34:50.895Z,69.14
2018-02-24T05:37:18.648Z,69.42
2018-02-24T05:39:46.328Z,69.32
2018-02-24T05:42:14.118Z,70.08
2018-02-24T05:44:41.874Z,70.09
2018-02-24T05:47:09.524Z,70.42
2018-02-24T05:49:37.698Z,69.95
2018-02-24T05:52:05.568Z,70.32
2018-02-24T05:54:33.268Z,70.35
2018-02-24T05:57:00.965Z,70.81
2018-02-24T05:59:28.669Z,71.00
2018-02-24T06:01:56.230Z,71.49
2018-02-24T06:04:23.933Z,71.68
2018-02-24T06:06:51.808Z,71.13
2018-02-24T06:09:19.444Z,72.07
2018-02-24T06:11:47.028Z,71.77
2018-02-24T06:14:14.565Z,72.03
2018-02-24T06:16:42.784Z,72.05
2018-02-24T06:19:10.552Z,72.35
2018-02-24T06:21:38.309Z,72.52
2018-02-24T06:24:05.979Z,72.24
2018-02-24T06:26:34.569Z,72.79
2018-02-24T06:29:02.239Z,72.80
2018-02-24T06:31:29.908Z,72.57
2018-02-24T06:33:57.583Z,72.83
2018-02-24T06:36:25.229Z,72.76
2018-02-24T06:38:52.876Z,72.63
2018-02-24T06:41:20.733Z,72.82
2018-02-24T06:43:48.419Z,72.66
2018-02-24T06:46:16.095Z,72.41
2018-02-24T06:48:43.838Z,72.12
2018-02-24T06:51:11.464Z,72.08
2018-02-24T06:53:39.057Z,72.24
2018-02-24T06:56:06.874Z,72.32
2018-02-24T06:58:34.539Z,72.13
2018-02-24T07:01:02.189Z,71.88
2018-02-24T07:03:30.132Z,71.63
2018-02-24T07:05:57.780Z,72.03
2018-02-24T07:08:26.054Z,71.66
2018-02-24T07:10:53.921Z,71.71
2018-02-24T07:13:21.630Z,72.02
2018-02-24T07:15:49.191Z,71.17
2018-02-24T07:18:16.923Z,71.21
2018-02-24T07:20:44.629Z,71.39
2018-02-24T07:23:12.249Z,71.15
2018-02-24T07:25:40.892Z,70.60
2018-02-24T07:28:08.424Z,71.05
2018-02-24T07:30:37.049Z,71.02
2018-02-24T07:33:04.848Z,70.30
2018-02-24T07:35:32.464Z,70.05
2018-02-24T07:38:00.228Z,69.63
2018-02-24T07:40:28.078Z,69.56
2018-02-24T07:42:55.734Z,69.96
2018-02-24T07:45:23.465Z,69.74
2018-02-24T07:47:51.198Z,69.48
2018-02-24T07:50:18.935Z,69.20
2018-02-24T07:52:46.610Z,69.14
2018-02-24T07:55:14.644Z,68.18
2018-02-24T07:57:43.233Z,67.64
2018-02-24T08:00:10.789Z,67.31
2018-02-24T08:02:38.554Z,65.86
2018-02-24T08:05:06.183Z,65.57
2018-02-24T08:07:33.842Z,64.10
2018-02-24T08:10:02.323Z,61.88
2018-02-24T08:12:30.087Z,60.59
2018-02-24T08:14:57.623Z,59.90
2018-02-24T08:17:25.298Z,59.45
2018-02-24T08:19:53.055Z,58.02
2018-02-24T08:22:20.870Z,58.26
2018-02-24T08:24:48.640Z,56.94
2018-02-24T08:27:16.275Z,56.37
2018-02-24T08:29:44.084Z,55.01
2018-02-24T08:32:11.764Z,54.69
2018-02-24T08:34:39.565Z,52.46
2018-02-24T08:37:07.304Z,52.39
2018-02-24T08:39:35.068Z,51.39
2018-02-24T08:42:02.924Z,50.77
2018-02-24T08:44:30.702Z,51.06
2018-02-24T08:46:58.285Z,51.14
2018-02-24T08:49:25.909Z,49.06
2018-02-24T08:51:54.279Z,49.16
2018-02-24T08:54:21.818Z,46.91
2018-02-24T08:56:49.505Z,47.31
2018-02-24T08:59:17.391Z,47.88
2018-02-24T09:01:45.174Z,48.00
2018-02-24T09:04:13.014Z,46.35
2018-02-24T09:06:40.685Z,46.21
2018-02-24T09:09:08.474Z,47.25
2018-02-24T09:11:36.443Z,44.74
2018-02-24T09:14:04.139Z,43.51
2018-02-24T09:16:32.028Z,43.50
2018-02-24T09:18:59.765Z,42.32
2018-02-24T09:21:27.293Z,42.50
2018-02-24T09:23:55.369Z,40.82
2018-02-24T09:26:23.448Z,40.62
2018-02-24T09:28:51.089Z,39.19
2018-02-24T09:31:19.083Z,39.24
2018-02-24T09:33:46.759Z,38.89
2018-02-24T09:36:15.353Z,37.40
2018-02-24T09:38:43.360Z,36.12
2018-02-24T09:41:11.147Z,35.07
2018-02-24T09:43:38.700Z,34.09
2018-02-24T09:46:06.474Z,35.12
2018-02-24T09:48:34.080Z,36.73
2018-02-24T09:51:03.585Z,36.51
2018-02-24T09:53:31.310Z,35.74
2018-02-24T09:55:59.048Z,34.09
2018-02-24T09:58:26.774Z,34.04
2018-02-24T10:00:54.590Z,33.71
2018-02-24T10:03:22.445Z,34.45
2018-02-24T10:05:50.091Z,33.43
2018-02-24T10:08:17.811Z,33.25
2018-02-24T10:10:45.843Z,33.12
2018-02-24T10:13:13.635Z,32.31
2018-02-24T10:15:42.973Z,31.27
2018-02-24T10:18:10.880Z,30.07
2018-02-24T10:20:38.530Z,29.77
2018-02-24T10:23:06.971Z,31.25
2018-02-24T10:25:34.859Z,33.94
2018-02-24T10:28:02.574Z,32.06
2018-02-24T10:30:30.204Z,30.16
2018-02-24T10:32:58.443Z,29.31
2018-02-24T10:35:26.081Z,29.19
2018-02-24T10:37:53.707Z,27.74
2018-02-24T10:40:21.866Z,28.28
2018-02-24T10:42:49.534Z,29.72
2018-02-24T10:45:17.095Z,27.93
2018-02-24T10:47:46.001Z,28.30
2018-02-24T10:50:13.779Z,27.50
2018-02-24T10:52:41.891Z,27.95
2018-02-24T10:55:09.930Z,25.91
2018-02-24T10:57:37.924Z,26.02
2018-02-24T11:00:05.624Z,27.60
2018-02-24T11:02:33.390Z,25.60
2018-02-24T11:05:01.221Z,25.58
2018-02-24T11:07:28.894Z,26.04
2018-02-24T11:09:56.448Z,26.03
2018-02-24T11:12:24.271Z,25.23
2018-02-24T11:14:52.074Z,25.42
2018-02-24T11:17:19.806Z,23.53
2018-02-24T11:19:47.439Z,23.62
2018-02-24T11:22:15.084Z,24.41
2018-02-24T11:24:42.732Z,25.27
2018-02-24T11:27:10.505Z,24.85
2018-02-24T11:29:38.409Z,23.31
2018-02-24T11:32:06.245Z,24.15
2018-02-24T11:34:33.979Z,23.11
2018-02-24T11:37:01.766Z,22.84
2018-02-24T11:39:35.068Z,23.10
2018-02-24T11:42:02.742Z,23.75
2018-02-24T11:44:30.565Z,22.38
2018-02-24T11:46:58.426Z,23.51
2018-02-24T11:49:26.141Z,23.66
2018-02-24T11:51:53.709Z,23.75
2018-02-24T11:54:21.440Z,22.95
2018-02-24T11:56:49.116Z,23.60
2018-02-24T11:59:16.749Z,25.10
2018-02-24T12:01:44.737Z,24.48
2018-02-24T12:04:12.460Z,23.29
2018-02-24T12:06:40.494Z,23.99
2018-02-24T12:09:08.205Z,23.50
2018-02-24T12:11:35.980Z,24.26
2018-02-24T12:14:03.694Z,25.01
2018-02-24T12:16:31.332Z,23.18
2018-02-24T12:18:59.173Z,25.58
2018-02-24T12:21:27.118Z,25.96
2018-02-24T12:23:54.856Z,25.00
2018-02-24T12:26:22.659Z,25.07
2018-02-24T12:28:50.380Z,25.32
2018-02-24T12:31:18.228Z,23.80
2018-02-24T12:33:46.052Z,24.16
2018-02-24T12:36:14.938Z,24.41
2018-02-24T12:38:42.669Z,26.21
2018-02-24T12:41:10.297Z,24.99
2018-02-24T12:43:38.163Z,24.34
2018-02-24T12:46:06.039Z,24.74
2018-02-24T12:48:33.686Z,23.42
2018-02-24T12:51:01.440Z,24.23
2018-02-24T12:53:28.984Z,24.63
2018-02-24T12:55:56.668Z,24.96
2018-02-24T12:58:24.475Z,22.76
2018-02-24T13:00:52.184Z,23.42
2018-02-24T13:03:22.649Z,24.86
2018-02-24T13:05:50.178Z,23.77
2018-02-24T13:08:17.895Z,24.85
2018-02-24T13:10:45.660Z,25.65
2018-02-24T13:13:14.068Z,25.03
2018-02-24T13:15:42.014Z,23.74
2018-02-24T13:18:09.855Z,24.41
2018-02-24T13:20:37.660Z,24.66
2018-02-24T13:23:05.200Z,24.58
2018-02-24T13:25:33.240Z,23.09
2018-02-24T13:28:00.944Z,23.74
2018-02-24T13:30:28.660Z,24.13
2018-02-24T13:32:56.243Z,25.17
2018-02-24T13:35:24.046Z,26.24
2018-02-24T13:37:51.819Z,24.89
2018-02-24T13:40:20.500Z,26.58
2018-02-24T13:42:48.154Z,26.65
2018-02-24T13:45:15.986Z,26.97
2018-02-24T13:47:43.745Z,27.20
2018-02-24T13:50:11.328Z,28.81
2018-02-24T13:52:39.030Z,27.88
2018-02-24T13:55:06.815Z,29.41
2018-02-24T13:57:34.523Z,29.50
2018-02-24T14:00:02.254Z,28.94
2018-02-24T14:02:29.964Z,28.92
2018-02-24T14:04:57.821Z,29.54
2018-02-24T14:07:25.593Z,29.27
2018-02-24T14:09:53.393Z,29.83
2018-02-24T14:12:21.099Z,28.62
2018-02-24T14:14:49.019Z,29.50
2018-02-24T14:17:16.820Z,28.39
2018-02-24T14:19:44.738Z,28.23
2018-02-24T14:22:12.564Z,29.12
2018-02-24T14:24:40.421Z,29.50
2018-02-24T14:27:08.056Z,28.84
2018-02-24T14:29:35.884Z,29.48
2018-02-24T14:32:03.815Z,29.72
2018-02-24T14:34:31.611Z,28.83
2018-02-24T14:36:59.246Z,28.97
2018-02-24T14:39:27.085Z,29.62
2018-02-24T14:41:54.944Z,30.77
2018-02-24T14:44:22.604Z,31.70
2018-02-24T14:46:50.440Z,32.58
2018-02-24T14:49:18.416Z,33.25
2018-02-24T14:51:46.361Z,32.27
2018-02-24T14:54:14.687Z,33.06
2018-02-24T14:56:42.341Z,34.48
2018-02-24T14:59:10.039Z,35.08
2018-02-24T15:01:37.862Z,35.63
2018-02-24T15:04:05.558Z,35.63
2018-02-24T15:06:33.256Z,36.51
2018-02-24T15:09:00.942Z,37.79
2018-02-24T15:11:28.736Z,37.69
2018-02-24T15:13:56.637Z,37.56
2018-02-24T15:16:24.230Z,37.90
2018-02-24T15:18:52.155Z,38.30
2018-02-24T15:21:19.905Z,38.78
2018-02-24T15:23:47.971Z,39.40
2018-02-24T15:26:15.631Z,38.58
2018-02-24T15:28:43.467Z,39.16
2018-02-24T15:31:11.325Z,39.88
2018-02-24T15:33:39.019Z,39.76
2018-02-24T15:36:07.161Z,40.56
2018-02-24T15:38:34.986Z,40.38
2018-02-24T15:41:02.645Z,41.35
2018-02-24T15:43:30.407Z,42.07
2018-02-24T15:45:58.450Z,41.85
2018-02-24T15:48:26.125Z,42.98
2018-02-24T15:50:53.851Z,42.06
2018-02-24T15:53:21.851Z,43.35
2018-02-24T15:55:49.510Z,43.03
2018-02-24T15:58:18.072Z,43.20
2018-02-24T16:00:45.864Z,43.79
2018-02-24T16:03:13.629Z,44.10
2018-02-24T16:05:41.366Z,44.38
2018-02-24T16:08:09.020Z,45.16
2018-02-24T16:10:36.554Z,45.44
2018-02-24T16:13:04.194Z,45.86
2018-02-24T16:15:31.866Z,46.08
2018-02-24T16:17:59.726Z,46.09
2018-02-24T16:20:27.639Z,46.44
2018-02-24T16:22:55.394Z,46.84
2018-02-24T16:25:22.931Z,47.52
2018-02-24T16:27:50.696Z,47.63
2018-02-24T16:30:18.445Z,47.68
2018-02-24T16:32:46.030Z,48.11
2018-02-24T16:35:13.824Z,49.02
2018-02-24T16:37:41.534Z,48.47
2018-02-24T16:40:09.371Z,49.61
2018-02-24T16:42:37.358Z,49.85
2018-02-24T16:45:05.255Z,49.78
2018-02-24T16:47:33.099Z,49.68
2018-02-24T16:50:00.967Z,49.99
2018-02-24T16:52:28.797Z,49.76
2018-02-24T16:54:56.545Z,50.53
2018-02-24T16:57:24.404Z,50.08
2018-02-24T16:59:52.075Z,50.90
2018-02-24T17:02:19.870Z,50.85
2018-02-24T17:04:47.495Z,51.21
2018-02-24T17:07:15.351Z,51.62
2018-02-24T17:09:42.920Z,52.05
2018-02-24T17:12:10.823Z,52.39
2018-02-24T17:14:38.366Z,52.24
2018-02-24T17:17:05.913Z,52.43
2018-02-24T17:19:33.590Z,52.87
2018-02-24T17:22:01.215Z,52.97
2018-02-24T17:24:28.946Z,53.28
2018-02-24T17:26:56.595Z,53.44
2018-02-24T17:29:24.341Z,53.78
2018-02-24T17:31:52.151Z,53.63
2018-02-24T17:34:19.990Z,53.92
2018-02-24T17:36:47.549Z,54.19
2018-02-24T17:39:15.531Z,54.66
2018-02-24T17:41:43.237Z,54.68
2018-02-24T17:44:11.186Z,54.76
2018-02-24T17:46:38.749Z,54.42
2018-02-24T17:49:06.618Z,54.26
2018-02-24T17:51:34.914Z,53.58
2018-02-24T17:54:02.750Z,53.91
2018-02-24T17:56:30.590Z,54.27
2018-02-24T17:58:58.338Z,54.48
2018-02-24T18:01:25.921Z,55.00
2018-02-24T18:03:53.476Z,54.91
2018-02-24T18:06:21.245Z,55.38
2018-02-24T18:08:48.866Z,54.92
2018-02-24T18:11:16.539Z,56.04
2018-02-24T18:13:44.138Z,55.53
2018-02-24T18:16:11.870Z,54.87
2018-02-24T18:18:39.394Z,54.33
2018-02-24T18:21:07.374Z,55.69
2018-02-24T18:23:35.194Z,54.54
2018-02-24T18:26:03.434Z,54.34
2018-02-24T18:28:31.092Z,54.33
2018-02-24T18:30:58.949Z,53.75
2018-02-24T18:33:27.449Z,53.65
2018-02-24T18:35:55.171Z,54.23
2018-02-24T18:38:22.910Z,53.45
2018-02-24T18:40:50.581Z,53.49
2018-02-24T18:43:18.471Z,53.68
2018-02-24T18:45:46.910Z,53.90
2018-02-24T18:48:14.711Z,53.84
2018-02-24T18:50:42.321Z,53.07
2018-02-24T18:53:10.004Z,53.46
2018-02-24T18:55:37.764Z,54.05
2018-02-24T18:58:05.431Z,53.79
2018-02-24T19:00:32.991Z,53.03
2018-02-24T19:03:00.616Z,53.99
2018-02-24T19:05:28.261Z,53.52
2018-02-24T19:07:55.859Z,54.04
2018-02-24T19:10:23.574Z,54.62
2018-02-24T19:12:51.252Z,54.00
2018-02-24T19:15:19.235Z,53.37
2018-02-24T19:17:47.035Z,53.80
2018-02-24T19:20:14.834Z,52.68
2018-02-24T19:22:42.502Z,54.02
2018-02-24T19:25:10.119Z,52.24
2018-02-24T19:27:37.897Z,51.93
2018-02-24T19:30:05.462Z,52.24
2018-02-24T19:32:33.495Z,52.19
2018-02-24T19:35:01.681Z,51.95
2018-02-24T19:37:29.265Z,51.14
2018-02-24T19:39:56.844Z,50.29
2018-02-24T19:42:24.516Z,50.90
2018-02-24T19:44:52.233Z,50.05
2018-02-24T19:47:20.046Z,50.18
2018-02-24T19:49:47.611Z,50.63
2018-02-24T19:52:15.305Z,50.47
2018-02-24T19:54:43.175Z,50.21
2018-02-24T19:57:10.777Z,49.62
2018-02-24T19:59:38.566Z,49.89
2018-02-24T20:02:06.370Z,50.41
2018-02-24T20:04:34.395Z,49.81
2018-02-24T20:07:02.117Z,50.08
2018-02-24T20:09:29.681Z,49.28
2018-02-24T20:11:57.637Z,49.71
2018-02-24T20:14:25.455Z,49.83
2018-02-24T20:16:53.186Z,48.83
2018-02-24T20:19:21.125Z,48.91
2018-02-24T20:21:48.893Z,49.28
2018-02-24T20:24:16.567Z,48.63
2018-02-24T20:26:44.330Z,48.87
2018-02-24T20:29:11.957Z,48.53
2018-02-24T20:31:39.793Z,48.44
2018-02-24T20:34:07.520Z,48.15
2018-02-24T20:36:35.256Z,48.34
2018-02-24T20:39:02.993Z,49.10
2018-02-24T20:41:30.667Z,48.34
2018-02-24T20:43:58.467Z,48.48
2018-02-24T20:46:26.091Z,48.07
2018-02-24T20:48:53.880Z,48.98
2018-02-24T20:51:21.545Z,49.19
2018-02-24T20:53:49.394Z,48.85
2018-02-24T20:56:16.952Z,49.03
2018-02-24T20:58:44.600Z,48.61
2018-02-24T21:01:12.192Z,49.35
2018-02-24T21:03:40.202Z,48.88
2018-02-24T21:06:07.959Z,48.46
2018-02-24T21:08:35.662Z,48.56
2018-02-24T21:11:03.331Z,48.76
2018-02-24T21:13:31.145Z,49.17
2018-02-24T21:15:59.053Z,49.04
2018-02-24T21:18:26.683Z,49.54
2018-02-24T21:20:54.716Z,49.36
2018-02-24T21:23:22.286Z,49.19
2018-02-24T21:25:49.919Z,49.58
2018-02-24T21:28:17.579Z,49.59
2018-02-24T21:30:45.219Z,50.30
2018-02-24T21:33:12.887Z,50.14
2018-02-24T21:35:40.696Z,49.91
2018-02-24T21:38:08.395Z,50.38
2018-02-24T21:40:36.179Z,51.32
2018-02-24T21:43:03.771Z,50.42
2018-02-24T21:45:31.555Z,50.42
2018-02-24T21:47:59.255Z,50.74
2018-02-24T21:50:26.837Z,50.78
2018-02-24T21:52:54.722Z,50.69
2018-02-24T21:55:22.374Z,51.46
2018-02-24T21:57:49.920Z,50.75
2018-02-24T22:00:17.589Z,50.81
2018-02-24T22:02:45.249Z,51.39
2018-02-24T22:05:12.887Z,51.07
2018-02-24T22:07:40.690Z,52.01
2018-02-24T22:10:08.466Z,51.62
2018-02-24T22:12:36.323Z,51.50
2018-02-24T22:15:04.165Z,51.82
2018-02-24T22:17:31.882Z,51.85
2018-02-24T22:19:59.470Z,52.34
2018-02-24T22:22:27.285Z,52.16
2018-02-24T22:24:54.856Z,53.08
2018-02-24T22:27:23.424Z,52.35
2018-02-24T22:29:51.100Z,52.50
2018-02-24T22:32:18.997Z,52.56
2018-02-24T22:34:46.669Z,53.56
2018-02-24T22:37:14.357Z,54.13
2018-02-24T22:39:42.257Z,54.64
2018-02-24T22:42:10.260Z,54.41
2018-02-24T22:44:38.135Z,55.37
2018-02-24T22:47:06.044Z,55.36
2018-02-24T22:49:33.652Z,55.65
2018-02-24T22:52:01.198Z,55.28
2018-02-24T22:54:29.289Z,55.91
2018-02-24T23:00:30.051Z,56.19
2018-02-24T23:02:57.929Z,56.77
2018-02-24T23:05:26.152Z,56.52
2018-02-24T23:07:53.869Z,56.22
2018-02-24T23:10:21.606Z,55.97
2018-02-24T23:12:49.877Z,55.52
2018-02-24T23:15:17.665Z,56.96
2018-02-24T23:17:45.305Z,57.18
2018-02-24T23:20:12.885Z,56.98
2018-02-24T23:22:40.491Z,56.21
2018-02-24T23:25:08.179Z,57.25
2018-02-24T23:27:35.854Z,57.58
2018-02-24T23:30:03.945Z,57.31
2018-02-24T23:32:31.520Z,57.93
2018-02-24T23:34:59.241Z,58.15
2018-02-24T23:37:27.032Z,58.40
2018-02-24T23:39:54.705Z,58.63
2018-02-24T23:42:22.581Z,58.50
2018-02-24T23:44:50.168Z,58.72
2018-02-24T23:47:18.559Z,58.18
2018-02-24T23:49:46.154Z,57.48
2018-02-24T23:52:13.864Z,57.64
2018-02-24T23:54:42.325Z,56.92
2018-02-24T23:57:10.015Z,57.87
2018-02-24T23:59:37.617Z,58.22
